createdAt,value
2022-09-01T00:00:33.287Z,0.00
2022-09-01T00:01:33.275Z,0.00
2022-09-01T00:02:33.323Z,0.00
2022-09-01T00:03:33.254Z,0.00
2022-09-01T00:04:33.270Z,0.00
2022-09-01T00:05:33.231Z,0.00
2022-09-01T00:06:33.218Z,0.00
2022-09-01T00:07:33.209Z,0.00
2022-09-01T00:08:33.200Z,0.00
2022-09-01T00:09:33.196Z,0.00
2022-09-01T00:10:33.175Z,0.00
2022-09-01T00:11:33.166Z,0.00
2022-09-01T00:12:33.155Z,0.00
2022-09-01T00:13:33.145Z,0.00
2022-09-01T00:14:33.141Z,0.00
2022-09-01T00:15:33.203Z,0.00
2022-09-01T00:16:33.109Z,0.00
2022-09-01T00:17:33.103Z,0.00
2022-09-01T00:18:33.089Z,0.00
2022-09-01T00:19:33.092Z,0.00
2022-09-01T00:20:33.065Z,0.00
2022-09-01T00:21:33.056Z,0.00
2022-09-01T00:22:33.045Z,0.00
2022-09-01T00:23:33.035Z,0.00
2022-09-01T00:24:33.031Z,0.00
2022-09-01T00:25:33.011Z,0.00
2022-09-01T00:26:33.002Z,0.00
2022-09-01T00:27:32.989Z,0.00
2022-09-01T00:28:32.979Z,0.00
2022-09-01T00:29:32.982Z,0.00
2022-09-01T00:30:32.954Z,0.00
2022-09-01T00:31:33.054Z,0.00
2022-09-01T00:32:32.934Z,0.00
2022-09-01T00:33:32.922Z,0.00
2022-09-01T00:34:32.923Z,0.00
2022-09-01T00:35:37.139Z,0.00
2022-09-01T00:36:32.892Z,0.00
2022-09-01T00:37:32.881Z,0.00
2022-09-01T00:38:32.867Z,0.00
2022-09-01T00:39:32.867Z,0.00
2022-09-01T00:40:32.880Z,0.00
2022-09-01T00:41:32.834Z,0.00
2022-09-01T00:42:32.822Z,0.00
2022-09-01T00:43:32.813Z,0.00
2022-09-01T00:44:32.814Z,0.00
2022-09-01T00:45:32.792Z,0.00
2022-09-01T00:46:32.866Z,0.00
2022-09-01T00:47:32.768Z,0.00
2022-09-01T00:48:32.756Z,0.00
2022-09-01T00:49:35.351Z,0.00
2022-09-01T00:50:32.734Z,0.00
2022-09-01T00:51:32.725Z,0.00
2022-09-01T00:52:32.714Z,0.00
2022-09-01T00:53:32.704Z,0.00
2022-09-01T00:54:32.699Z,0.00
2022-09-01T00:55:32.828Z,0.00
2022-09-01T00:56:32.672Z,0.00
2022-09-01T00:57:32.659Z,0.00
2022-09-01T00:58:32.647Z,0.00
2022-09-01T00:59:32.670Z,0.00
2022-09-01T01:00:32.628Z,0.00
2022-09-01T01:01:32.681Z,0.00
2022-09-01T01:02:32.658Z,0.00
2022-09-01T01:03:32.594Z,0.00
2022-09-01T01:04:32.595Z,0.00
2022-09-01T01:05:32.572Z,0.00
2022-09-01T01:06:32.559Z,0.00
2022-09-01T01:07:32.550Z,0.00
2022-09-01T01:08:32.536Z,0.00
2022-09-01T01:09:32.538Z,0.00
2022-09-01T01:10:32.519Z,0.00
2022-09-01T01:11:32.505Z,0.00
2022-09-01T01:12:32.494Z,0.00
2022-09-01T01:13:32.481Z,0.00
2022-09-01T01:14:32.534Z,0.00
2022-09-01T01:15:32.459Z,0.00
2022-09-01T01:16:32.518Z,0.00
2022-09-01T01:17:32.437Z,0.00
2022-09-01T01:18:32.429Z,0.00
2022-09-01T01:19:35.837Z,0.00
2022-09-01T01:20:33.403Z,0.00
2022-09-01T01:21:32.393Z,0.00
2022-09-01T01:22:32.385Z,0.00
2022-09-01T01:23:32.370Z,0.00
2022-09-01T01:24:32.372Z,0.00
2022-09-01T01:25:32.350Z,0.00
2022-09-01T01:26:32.342Z,0.00
2022-09-01T01:27:32.334Z,0.00
2022-09-01T01:28:32.319Z,0.00
2022-09-01T01:29:32.322Z,0.00
2022-09-01T01:30:32.312Z,0.00
2022-09-01T01:31:32.285Z,0.00
2022-09-01T01:32:32.276Z,0.00
2022-09-01T01:33:32.296Z,0.00
2022-09-01T01:34:32.255Z,0.00
2022-09-01T01:35:32.265Z,0.00
2022-09-01T01:36:32.261Z,0.00
2022-09-01T01:37:32.219Z,0.00
2022-09-01T01:38:32.209Z,0.00
2022-09-01T01:39:32.196Z,0.00
2022-09-01T01:40:32.269Z,0.00
2022-09-01T01:41:32.172Z,0.00
2022-09-01T01:42:32.170Z,0.00
2022-09-01T01:43:32.151Z,0.00
2022-09-01T01:44:32.141Z,0.00
2022-09-01T01:45:32.137Z,0.00
2022-09-01T01:46:32.172Z,0.00
2022-09-01T01:47:32.109Z,0.00
2022-09-01T01:48:32.098Z,0.00
2022-09-01T01:49:32.085Z,0.00
2022-09-01T01:50:32.084Z,0.00
2022-09-01T01:51:32.063Z,0.00
2022-09-01T01:52:32.055Z,0.00
2022-09-01T01:53:32.040Z,0.00
2022-09-01T01:54:32.035Z,0.00
2022-09-01T01:55:32.026Z,0.00
2022-09-01T01:56:32.011Z,0.00
2022-09-01T01:57:31.998Z,0.00
2022-09-01T01:58:31.989Z,0.00
2022-09-01T01:59:31.976Z,0.00
2022-09-01T02:00:31.982Z,0.00
2022-09-01T02:01:32.066Z,0.00
2022-09-01T02:02:32.026Z,0.00
2022-09-01T02:03:31.930Z,0.00
2022-09-01T02:04:31.921Z,0.00
2022-09-01T02:05:31.917Z,0.00
2022-09-01T02:06:31.906Z,0.00
2022-09-01T02:07:31.886Z,0.00
2022-09-01T02:08:31.878Z,0.00
2022-09-01T02:09:31.864Z,0.00
2022-09-01T02:10:31.870Z,0.00
2022-09-01T02:11:31.842Z,0.00
2022-09-01T02:12:31.833Z,0.00
2022-09-01T02:13:31.819Z,0.00
2022-09-01T02:14:31.811Z,0.00
2022-09-01T02:15:31.808Z,0.00
2022-09-01T02:16:31.871Z,0.00
2022-09-01T02:17:31.774Z,0.00
2022-09-01T02:18:31.766Z,0.00
2022-09-01T02:19:31.755Z,0.00
2022-09-01T02:20:31.753Z,0.00
2022-09-01T02:21:31.734Z,0.00
2022-09-01T02:22:31.749Z,0.00
2022-09-01T02:23:31.708Z,0.00
2022-09-01T02:24:31.718Z,0.00
2022-09-01T02:25:31.687Z,0.00
2022-09-01T02:26:31.677Z,0.00
2022-09-01T02:27:31.663Z,0.00
2022-09-01T02:28:31.656Z,0.00
2022-09-01T02:29:33.312Z,0.00
2022-09-01T02:30:32.665Z,0.00
2022-09-01T02:31:31.619Z,0.00
2022-09-01T02:32:31.611Z,0.00
2022-09-01T02:33:31.598Z,0.00
2022-09-01T02:34:31.603Z,0.00
2022-09-01T02:35:31.580Z,0.00
2022-09-01T02:36:31.568Z,0.00
2022-09-01T02:37:31.557Z,0.00
2022-09-01T02:38:31.544Z,0.00
2022-09-01T02:39:31.543Z,0.00
2022-09-01T02:40:31.640Z,0.00
2022-09-01T02:41:31.509Z,0.00
2022-09-01T02:42:31.513Z,0.00
2022-09-01T02:43:31.490Z,0.00
2022-09-01T02:44:31.488Z,0.00
2022-09-01T02:45:31.510Z,0.00
2022-09-01T02:46:31.460Z,0.00
2022-09-01T02:47:31.442Z,0.00
2022-09-01T02:48:31.434Z,0.00
2022-09-01T02:49:31.441Z,0.00
2022-09-01T02:50:31.410Z,0.00
2022-09-01T02:51:31.399Z,0.00
2022-09-01T02:52:31.389Z,0.00
2022-09-01T02:53:31.376Z,0.00
2022-09-01T02:54:31.380Z,0.00
2022-09-01T02:55:31.359Z,0.00
2022-09-01T02:56:31.419Z,0.00
2022-09-01T02:57:31.332Z,0.00
2022-09-01T02:58:31.322Z,0.00
2022-09-01T02:59:31.325Z,0.00
2022-09-01T03:00:31.300Z,0.00
2022-09-01T03:01:31.309Z,0.00
2022-09-01T03:02:31.278Z,0.00
2022-09-01T03:03:31.274Z,0.00
2022-09-01T03:04:31.321Z,0.00
2022-09-01T03:05:31.244Z,0.00
2022-09-01T03:06:31.237Z,0.00
2022-09-01T03:07:31.224Z,0.00
2022-09-01T03:08:31.223Z,0.00
2022-09-01T03:09:31.200Z,0.00
2022-09-01T03:10:31.190Z,0.00
2022-09-01T03:11:31.180Z,0.00
2022-09-01T03:12:31.169Z,0.00
2022-09-01T03:13:31.167Z,0.00
2022-09-01T03:14:31.147Z,0.00
2022-09-01T03:15:31.132Z,0.00
2022-09-01T03:16:31.182Z,0.00
2022-09-01T03:17:31.113Z,0.00
2022-09-01T03:18:31.113Z,0.00
2022-09-01T03:19:31.089Z,0.00
2022-09-01T03:20:31.079Z,0.00
2022-09-01T03:21:31.066Z,0.00
2022-09-01T03:22:31.061Z,0.00
2022-09-01T03:23:31.055Z,0.00
2022-09-01T03:24:31.035Z,0.00
2022-09-01T03:25:31.023Z,0.00
2022-09-01T03:26:31.013Z,0.00
2022-09-01T03:27:31.001Z,0.00
2022-09-01T03:28:31.005Z,0.00
2022-09-01T03:29:30.983Z,0.00
2022-09-01T03:30:30.970Z,0.00
2022-09-01T03:31:31.531Z,0.00
2022-09-01T03:32:30.957Z,0.00
2022-09-01T03:33:30.944Z,0.00
2022-09-01T03:34:30.926Z,0.00
2022-09-01T03:35:30.914Z,0.00
2022-09-01T03:36:30.904Z,0.00
2022-09-01T03:37:30.893Z,0.00
2022-09-01T03:38:30.894Z,0.00
2022-09-01T03:39:30.872Z,0.00
2022-09-01T03:40:30.949Z,0.00
2022-09-01T03:41:30.853Z,0.00
2022-09-01T03:42:30.840Z,0.00
2022-09-01T03:43:34.478Z,0.00
2022-09-01T03:44:31.816Z,0.00
2022-09-01T03:45:30.832Z,0.00
2022-09-01T03:46:35.701Z,0.00
2022-09-01T03:47:31.785Z,0.00
2022-09-01T03:48:30.785Z,0.00
2022-09-01T03:49:30.761Z,0.00
2022-09-01T03:50:30.754Z,0.00
2022-09-01T03:51:30.742Z,0.00
2022-09-01T03:52:30.729Z,0.00
2022-09-01T03:53:30.729Z,0.00
2022-09-01T03:54:30.868Z,0.00
2022-09-01T03:55:30.698Z,0.00
2022-09-01T03:56:30.685Z,0.00
2022-09-01T03:57:32.468Z,0.00
2022-09-01T03:58:30.678Z,0.00
2022-09-01T03:59:30.654Z,0.00
2022-09-01T04:00:30.642Z,0.00
2022-09-01T04:01:30.665Z,0.00
2022-09-01T04:02:30.707Z,0.00
2022-09-01T04:03:31.054Z,0.00
2022-09-01T04:04:30.603Z,0.00
2022-09-01T04:05:30.597Z,0.00
2022-09-01T04:06:30.590Z,0.00
2022-09-01T04:07:30.567Z,0.00
2022-09-01T04:08:32.402Z,0.00
2022-09-01T04:09:30.543Z,0.00
2022-09-01T04:10:30.534Z,0.00
2022-09-01T04:11:30.522Z,0.00
2022-09-01T04:12:30.512Z,0.00
2022-09-01T04:13:30.510Z,0.00
2022-09-01T04:14:30.789Z,0.00
2022-09-01T04:15:30.478Z,0.00
2022-09-01T04:16:30.581Z,5.62
2022-09-01T04:17:30.775Z,5.62
2022-09-01T04:18:30.460Z,5.62
2022-09-01T04:19:30.433Z,5.62
2022-09-01T04:20:30.425Z,5.62
2022-09-01T04:21:30.412Z,5.62
2022-09-01T04:22:30.403Z,5.62
2022-09-01T04:23:30.403Z,5.62
2022-09-01T04:24:30.380Z,5.62
2022-09-01T04:25:30.367Z,11.25
2022-09-01T04:26:30.360Z,11.25
2022-09-01T04:27:30.347Z,11.25
2022-09-01T04:28:30.350Z,11.25
2022-09-01T04:29:30.325Z,16.88
2022-09-01T04:30:30.316Z,16.88
2022-09-01T04:31:30.333Z,16.88
2022-09-01T04:32:30.297Z,16.88
2022-09-01T04:33:30.291Z,16.88
2022-09-01T04:34:30.272Z,22.50
2022-09-01T04:35:30.260Z,22.50
2022-09-01T04:36:30.252Z,22.50
2022-09-01T04:37:30.237Z,22.50
2022-09-01T04:38:30.239Z,22.50
2022-09-01T04:39:30.224Z,22.50
2022-09-01T04:40:30.300Z,28.12
2022-09-01T04:41:30.199Z,28.12
2022-09-01T04:42:30.184Z,28.12
2022-09-01T04:43:30.171Z,28.12
2022-09-01T04:44:30.176Z,28.12
2022-09-01T04:45:30.233Z,28.12
2022-09-01T04:46:30.140Z,33.75
2022-09-01T04:47:35.757Z,33.75
2022-09-01T04:48:31.117Z,33.75
2022-09-01T04:49:30.115Z,33.75
2022-09-01T04:50:30.101Z,33.75
2022-09-01T04:51:30.084Z,39.38
2022-09-01T04:52:30.074Z,39.38
2022-09-01T04:53:30.062Z,39.38
2022-09-01T04:54:30.090Z,39.38
2022-09-01T04:55:30.039Z,45.00
2022-09-01T04:56:30.030Z,45.00
2022-09-01T04:57:30.020Z,45.00
2022-09-01T04:58:30.015Z,45.00
2022-09-01T04:59:30.007Z,45.00
2022-09-01T05:00:29.992Z,45.00
2022-09-01T05:01:30.096Z,50.62
2022-09-01T05:02:30.032Z,50.62
2022-09-01T05:03:29.954Z,50.62
2022-09-01T05:04:30.010Z,50.62
2022-09-01T05:05:29.932Z,50.62
2022-09-01T05:06:29.932Z,50.62
2022-09-01T05:07:29.913Z,56.25
2022-09-01T05:08:32.713Z,56.25
2022-09-01T05:09:29.897Z,56.25
2022-09-01T05:10:30.127Z,56.25
2022-09-01T05:11:29.867Z,61.88
2022-09-01T05:12:29.856Z,61.88
2022-09-01T05:13:29.853Z,61.88
2022-09-01T05:14:29.844Z,67.50
2022-09-01T05:15:29.822Z,61.88
2022-09-01T05:16:29.880Z,61.88
2022-09-01T05:17:29.805Z,61.88
2022-09-01T05:18:29.794Z,61.88
2022-09-01T05:19:29.798Z,61.88
2022-09-01T05:20:29.770Z,61.88
2022-09-01T05:21:29.921Z,61.88
2022-09-01T05:22:29.751Z,67.50
2022-09-01T05:23:29.733Z,67.50
2022-09-01T05:24:29.896Z,67.50
2022-09-01T05:25:29.715Z,67.50
2022-09-01T05:26:29.702Z,67.50
2022-09-01T05:27:29.731Z,67.50
2022-09-01T05:28:29.682Z,73.12
2022-09-01T05:29:29.704Z,73.12
2022-09-01T05:30:29.656Z,73.12
2022-09-01T05:31:29.711Z,73.12
2022-09-01T05:32:29.633Z,73.12
2022-09-01T05:33:29.625Z,78.75
2022-09-01T05:34:29.621Z,78.75
2022-09-01T05:35:32.547Z,84.38
2022-09-01T05:36:29.590Z,84.38
2022-09-01T05:37:29.579Z,90.00
2022-09-01T05:38:29.578Z,101.25
2022-09-01T05:39:29.585Z,101.25
2022-09-01T05:40:29.636Z,84.38
2022-09-01T05:41:33.780Z,84.38
2022-09-01T05:42:29.525Z,95.62
2022-09-01T05:43:29.515Z,101.25
2022-09-01T05:44:29.522Z,90.00
2022-09-01T05:45:40.103Z,95.62
2022-09-01T05:46:30.583Z,95.62
2022-09-01T05:47:29.470Z,95.62
2022-09-01T05:48:29.456Z,90.00
2022-09-01T05:49:29.458Z,90.00
2022-09-01T05:50:29.435Z,90.00
2022-09-01T05:51:45.943Z,90.00
2022-09-01T05:52:30.413Z,95.62
2022-09-01T05:53:29.407Z,95.62
2022-09-01T05:54:29.400Z,101.25
2022-09-01T05:55:29.386Z,123.75
2022-09-01T05:56:29.368Z,151.88
2022-09-01T05:57:34.633Z,180.00
2022-09-01T05:59:22.541Z,146.25
2022-09-01T05:59:30.344Z,118.12
2022-09-01T06:00:29.325Z,123.75
2022-09-01T06:01:29.393Z,168.75
2022-09-01T06:02:29.414Z,258.75
2022-09-01T06:03:29.346Z,433.12
2022-09-01T06:04:29.295Z,365.62
2022-09-01T06:05:29.270Z,393.75
2022-09-01T06:06:36.803Z,393.75
2022-09-01T06:07:30.247Z,236.25
2022-09-01T06:08:29.235Z,180.00
2022-09-01T06:09:29.236Z,253.12
2022-09-01T06:10:29.216Z,258.75
2022-09-01T06:11:29.210Z,208.12
2022-09-01T06:12:29.194Z,202.50
2022-09-01T06:13:29.186Z,331.88
2022-09-01T06:14:29.180Z,202.50
2022-09-01T06:15:29.163Z,123.75
2022-09-01T06:16:29.186Z,135.00
2022-09-01T06:17:29.139Z,140.62
2022-09-01T06:18:29.126Z,140.62
2022-09-01T06:19:31.546Z,151.88
2022-09-01T06:20:30.112Z,140.62
2022-09-01T06:21:29.102Z,163.12
2022-09-01T06:22:29.081Z,180.00
2022-09-01T06:23:29.163Z,253.12
2022-09-01T06:24:29.081Z,298.12
2022-09-01T06:25:29.089Z,253.12
2022-09-01T06:26:29.038Z,163.12
2022-09-01T06:27:29.068Z,140.62
2022-09-01T06:28:29.021Z,129.38
2022-09-01T06:29:29.021Z,129.38
2022-09-01T06:30:28.997Z,135.00
2022-09-01T06:31:29.070Z,135.00
2022-09-01T06:32:29.054Z,140.62
2022-09-01T06:33:28.979Z,140.62
2022-09-01T06:34:28.963Z,140.62
2022-09-01T06:35:28.945Z,174.38
2022-09-01T06:36:32.047Z,168.75
2022-09-01T06:37:29.966Z,157.50
2022-09-01T06:38:28.982Z,163.12
2022-09-01T06:39:28.915Z,191.25
2022-09-01T06:40:28.924Z,157.50
2022-09-01T06:41:28.877Z,151.88
2022-09-01T06:42:28.863Z,174.38
2022-09-01T06:43:28.855Z,202.50
2022-09-01T06:44:28.853Z,230.62
2022-09-01T06:45:28.832Z,213.75
2022-09-01T06:46:28.885Z,326.25
2022-09-01T06:47:28.818Z,298.12
2022-09-01T06:48:28.801Z,258.75
2022-09-01T06:49:28.797Z,309.38
2022-09-01T06:51:29.768Z,326.25
2022-09-01T06:53:31.621Z,202.50
2022-09-01T06:53:33.118Z,331.88
2022-09-01T06:54:28.744Z,708.75
2022-09-01T06:55:28.778Z,871.88
2022-09-01T06:56:30.962Z,703.12
2022-09-01T06:58:29.696Z,517.50
2022-09-01T06:59:32.593Z,624.38
2022-09-01T07:00:29.667Z,995.62
2022-09-01T07:01:29.267Z,883.12
2022-09-01T07:02:28.682Z,1164.38
2022-09-01T07:03:28.639Z,1265.62
2022-09-01T07:04:28.638Z,1293.75
2022-09-01T07:08:29.581Z,1248.75
2022-09-01T07:09:39.718Z,1203.75
2022-09-01T07:10:29.564Z,1209.38
2022-09-01T07:12:29.539Z,1141.88
2022-09-01T07:13:28.528Z,1226.25
2022-09-01T07:14:28.528Z,1153.12
2022-09-01T07:16:32.497Z,1293.75
2022-09-01T07:17:28.491Z,1231.88
2022-09-01T07:18:28.839Z,1265.62
2022-09-01T07:19:48.277Z,1310.62
2022-09-01T07:20:29.531Z,1338.75
2022-09-01T07:22:06.762Z,1378.12
2022-09-01T07:23:02.603Z,1445.62
2022-09-01T07:23:46.273Z,1490.62
2022-09-01T07:24:31.797Z,1530.00
2022-09-01T07:25:34.912Z,1569.38
2022-09-01T07:26:29.387Z,1535.62
2022-09-01T07:27:35.655Z,1445.62
2022-09-01T07:28:36.159Z,1400.62
2022-09-01T07:29:29.362Z,1434.38
2022-09-01T07:30:28.349Z,1462.50
2022-09-01T07:32:47.728Z,1586.25
2022-09-01T07:33:45.602Z,1636.88
2022-09-01T07:35:29.293Z,1676.25
2022-09-01T07:36:29.294Z,1681.88
2022-09-01T07:42:31.700Z,1693.12
2022-09-01T07:43:32.708Z,1721.25
2022-09-01T07:44:28.217Z,1732.50
2022-09-01T07:45:28.774Z,1710.00
2022-09-01T07:46:43.602Z,1726.88
2022-09-01T07:47:57.359Z,1766.25
2022-09-01T07:49:01.189Z,1822.50
2022-09-01T07:49:30.304Z,1901.25
2022-09-01T07:51:37.680Z,1845.00
2022-09-01T07:52:29.119Z,1861.88
2022-09-01T07:53:28.122Z,1861.88
2022-09-01T07:54:28.099Z,1805.62
2022-09-01T07:55:28.094Z,1788.75
2022-09-01T07:56:28.078Z,1755.00
2022-09-01T07:57:28.072Z,1800.00
2022-09-01T07:58:28.089Z,1839.38
2022-09-01T07:59:28.055Z,1861.88
2022-09-01T08:00:30.189Z,1890.00
2022-09-01T08:01:28.054Z,1845.00
2022-09-01T08:02:28.139Z,1845.00
2022-09-01T08:03:28.020Z,1833.75
2022-09-01T08:04:27.998Z,1867.50
2022-09-01T08:05:27.990Z,1867.50
2022-09-01T08:06:28.181Z,1873.12
2022-09-01T08:07:27.983Z,1884.38
2022-09-01T08:08:29.328Z,1828.12
2022-09-01T08:09:38.049Z,1828.12
2022-09-01T08:10:28.940Z,1884.38
2022-09-01T08:11:51.539Z,1839.38
2022-09-01T08:12:29.315Z,1861.88
2022-09-01T08:13:27.913Z,1946.25
2022-09-01T08:14:33.710Z,1929.38
2022-09-01T08:16:39.265Z,1968.75
2022-09-01T08:17:51.192Z,2047.50
2022-09-01T08:18:29.537Z,2047.50
2022-09-01T08:19:27.850Z,1985.62
2022-09-01T08:20:27.842Z,1935.00
2022-09-01T08:21:27.853Z,1929.38
2022-09-01T08:22:27.832Z,1906.88
2022-09-01T08:23:27.814Z,1906.88
2022-09-01T08:24:27.799Z,1963.12
2022-09-01T08:25:27.796Z,2002.50
2022-09-01T08:26:27.794Z,1951.88
2022-09-01T08:27:27.776Z,1929.38
2022-09-01T08:28:27.996Z,1940.62
2022-09-01T08:29:27.752Z,1985.62
2022-09-01T08:30:27.756Z,2070.00
2022-09-01T08:31:30.600Z,2103.75
2022-09-01T08:32:27.719Z,2041.88
2022-09-01T08:33:27.711Z,2053.12
2022-09-01T08:34:27.702Z,2143.12
2022-09-01T08:35:27.693Z,2098.12
2022-09-01T08:36:27.692Z,2047.50
2022-09-01T08:37:27.698Z,2058.75
2022-09-01T08:38:28.958Z,2047.50
2022-09-01T08:39:27.653Z,2103.75
2022-09-01T08:40:27.739Z,2205.00
2022-09-01T08:41:28.696Z,2182.50
2022-09-01T08:42:30.029Z,2041.88
2022-09-01T08:43:27.611Z,2064.38
2022-09-01T08:44:27.642Z,2103.75
2022-09-01T08:45:27.595Z,2092.50
2022-09-01T08:46:27.715Z,2165.62
2022-09-01T08:47:35.593Z,2216.25
2022-09-01T08:49:16.422Z,2210.62
2022-09-01T08:49:29.213Z,2227.50
2022-09-01T08:50:27.543Z,2165.62
2022-09-01T08:51:27.547Z,2137.50
2022-09-01T08:52:27.531Z,2171.25
2022-09-01T08:53:27.515Z,2266.88
2022-09-01T08:54:29.453Z,2278.12
2022-09-01T08:55:27.510Z,2266.88
2022-09-01T08:56:27.508Z,2306.25
2022-09-01T08:57:27.486Z,2210.62
2022-09-01T08:58:27.473Z,2165.62
2022-09-01T08:59:27.457Z,2154.38
2022-09-01T09:00:27.444Z,2075.62
2022-09-01T09:01:27.576Z,2115.00
2022-09-01T09:02:27.516Z,2131.88
2022-09-01T09:03:27.480Z,2188.12
2022-09-01T09:04:27.409Z,2261.25
2022-09-01T09:05:27.400Z,2165.62
2022-09-01T09:06:27.399Z,2244.38
2022-09-01T09:07:27.381Z,2373.75
2022-09-01T09:08:29.613Z,2385.00
2022-09-01T09:09:34.546Z,2356.88
2022-09-01T09:10:28.348Z,2317.50
2022-09-01T09:11:27.357Z,2300.62
2022-09-01T09:12:27.328Z,2300.62
2022-09-01T09:13:27.320Z,2272.50
2022-09-01T09:14:27.309Z,2300.62
2022-09-01T09:15:27.317Z,2441.25
2022-09-01T09:16:27.412Z,2469.38
2022-09-01T09:17:27.477Z,2525.62
2022-09-01T09:18:39.196Z,2581.88
2022-09-01T09:19:28.263Z,2497.50
2022-09-01T09:20:27.254Z,2503.12
2022-09-01T09:21:27.252Z,2587.50
2022-09-01T09:22:27.233Z,1710.00
2022-09-01T09:23:27.229Z,2683.12
2022-09-01T09:24:27.220Z,2626.88
2022-09-01T09:25:28.204Z,2604.38
2022-09-01T09:26:27.424Z,2688.75
2022-09-01T09:27:27.186Z,2660.62
2022-09-01T09:28:27.174Z,2626.88
2022-09-01T09:29:27.169Z,2576.25
2022-09-01T09:30:27.155Z,2525.62
2022-09-01T09:31:27.196Z,2559.38
2022-09-01T09:32:44.260Z,2655.00
2022-09-01T09:33:48.562Z,2587.50
2022-09-01T09:34:28.116Z,2345.62
2022-09-01T09:35:27.109Z,2576.25
2022-09-01T09:36:27.117Z,517.50
2022-09-01T09:37:27.087Z,2418.75
2022-09-01T09:38:27.076Z,928.12
2022-09-01T09:39:27.068Z,2818.12
2022-09-01T09:40:27.151Z,2851.88
2022-09-01T09:41:27.606Z,343.12
2022-09-01T09:42:33.392Z,309.38
2022-09-01T09:43:28.147Z,2334.38
2022-09-01T09:44:27.020Z,832.50
2022-09-01T09:45:27.007Z,2008.12
2022-09-01T09:46:27.052Z,461.25
2022-09-01T09:47:42.760Z,365.62
2022-09-01T09:48:29.170Z,427.50
2022-09-01T09:49:34.606Z,320.62
2022-09-01T09:50:27.957Z,967.50
2022-09-01T09:51:28.966Z,421.88
2022-09-01T09:52:26.938Z,714.38
2022-09-01T09:53:26.927Z,2604.38
2022-09-01T09:54:26.918Z,2728.12
2022-09-01T09:55:26.905Z,1980.00
2022-09-01T09:56:26.910Z,2835.00
2022-09-01T09:57:26.885Z,1805.62
2022-09-01T09:58:26.878Z,2857.50
2022-09-01T09:59:53.092Z,3009.38
2022-09-01T10:00:27.855Z,2981.25
2022-09-01T10:01:26.909Z,540.00
2022-09-01T10:02:28.019Z,416.25
2022-09-01T10:03:29.119Z,3099.38
2022-09-01T10:04:26.844Z,2688.75
2022-09-01T10:05:26.807Z,2953.12
2022-09-01T10:06:26.806Z,2975.62
2022-09-01T10:07:26.784Z,2958.75
2022-09-01T10:08:26.780Z,3003.75
2022-09-01T10:09:26.764Z,1372.50
2022-09-01T10:10:26.754Z,399.38
2022-09-01T10:11:31.288Z,461.25
2022-09-01T10:12:27.739Z,2626.88
2022-09-01T10:13:26.912Z,3031.88
2022-09-01T10:14:51.645Z,3425.62
2022-09-01T10:15:28.272Z,781.88
2022-09-01T10:16:27.764Z,551.25
2022-09-01T10:17:26.778Z,2508.75
2022-09-01T10:18:29.800Z,3262.50
2022-09-01T10:19:26.662Z,450.00
2022-09-01T10:20:26.663Z,2677.50
2022-09-01T10:21:26.644Z,416.25
2022-09-01T10:22:26.634Z,1929.38
2022-09-01T10:23:27.383Z,2598.75
2022-09-01T10:24:30.476Z,3223.12
2022-09-01T10:25:29.471Z,3093.75
2022-09-01T10:26:26.595Z,3048.75
2022-09-01T10:27:26.582Z,2401.88
2022-09-01T10:28:26.917Z,3234.38
2022-09-01T10:29:26.561Z,3183.75
2022-09-01T10:30:26.622Z,1372.50
2022-09-01T10:31:29.565Z,427.50
2022-09-01T10:32:37.012Z,292.50
2022-09-01T10:33:27.520Z,292.50
2022-09-01T10:34:26.532Z,281.25
2022-09-01T10:35:26.950Z,281.25
2022-09-01T10:36:26.491Z,376.88
2022-09-01T10:37:27.640Z,320.62
2022-09-01T10:38:26.474Z,292.50
2022-09-01T10:39:28.697Z,292.50
2022-09-01T10:40:31.199Z,253.12
2022-09-01T10:41:27.460Z,247.50
2022-09-01T10:42:26.428Z,247.50
2022-09-01T10:43:26.500Z,247.50
2022-09-01T10:44:26.613Z,208.12
2022-09-01T10:45:26.630Z,202.50
2022-09-01T10:46:27.623Z,208.12
2022-09-01T10:47:27.387Z,225.00
2022-09-01T10:48:45.697Z,230.62
2022-09-01T10:49:27.754Z,253.12
2022-09-01T10:50:26.355Z,281.25
2022-09-01T10:51:28.386Z,309.38
2022-09-01T10:52:28.569Z,320.62
2022-09-01T10:53:26.859Z,315.00
2022-09-01T10:54:26.653Z,270.00
2022-09-01T10:55:26.297Z,270.00
2022-09-01T10:56:29.437Z,264.38
2022-09-01T10:57:28.077Z,253.12
2022-09-01T10:59:31.576Z,219.38
2022-09-01T11:01:10.676Z,191.25
2022-09-01T11:01:47.950Z,196.88
2022-09-01T11:02:28.715Z,219.38
2022-09-01T11:03:31.539Z,258.75
2022-09-01T11:04:27.273Z,275.62
2022-09-01T11:05:31.260Z,253.12
2022-09-01T11:06:33.266Z,219.38
2022-09-01T11:07:44.250Z,174.38
2022-09-01T11:08:27.452Z,202.50
2022-09-01T11:09:26.139Z,213.75
2022-09-01T11:10:34.193Z,225.00
2022-09-01T11:11:27.115Z,264.38
2022-09-01T11:12:29.207Z,253.12
2022-09-01T11:13:26.094Z,247.50
2022-09-01T11:14:26.091Z,264.38
2022-09-01T11:15:26.785Z,247.50
2022-09-01T11:17:27.067Z,247.50
2022-09-01T11:18:26.051Z,241.88
2022-09-01T11:19:26.032Z,247.50
2022-09-01T11:20:26.030Z,258.75
2022-09-01T11:21:26.049Z,270.00
2022-09-01T11:22:26.507Z,298.12
2022-09-01T11:23:27.798Z,320.62
2022-09-01T11:24:27.334Z,292.50
2022-09-01T11:25:25.977Z,275.62
2022-09-01T11:26:25.955Z,253.12
2022-09-01T11:27:25.943Z,230.62
2022-09-01T11:28:25.992Z,213.75
2022-09-01T11:29:25.922Z,219.38
2022-09-01T11:30:25.924Z,225.00
2022-09-01T11:31:26.029Z,208.12
2022-09-01T11:32:25.895Z,196.88
2022-09-01T11:33:25.876Z,196.88
2022-09-01T11:34:25.867Z,191.25
2022-09-01T11:35:25.864Z,185.62
2022-09-01T11:36:25.845Z,180.00
2022-09-01T11:37:27.833Z,168.75
2022-09-01T11:38:25.822Z,163.12
2022-09-01T11:39:25.811Z,157.50
2022-09-01T11:40:25.911Z,157.50
2022-09-01T11:41:32.321Z,157.50
2022-09-01T11:42:25.778Z,163.12
2022-09-01T11:43:27.196Z,168.75
2022-09-01T11:44:25.778Z,163.12
2022-09-01T11:45:25.757Z,168.75
2022-09-01T11:46:25.736Z,174.38
2022-09-01T11:47:25.721Z,191.25
2022-09-01T11:48:25.710Z,196.88
2022-09-01T11:49:25.698Z,196.88
2022-09-01T11:50:25.709Z,208.12
2022-09-01T11:51:25.676Z,225.00
2022-09-01T11:52:25.698Z,241.88
2022-09-01T11:53:25.654Z,264.38
2022-09-01T11:54:25.648Z,275.62
2022-09-01T11:55:25.639Z,270.00
2022-09-01T11:56:25.621Z,247.50
2022-09-01T11:57:25.609Z,241.88
2022-09-01T11:58:25.599Z,230.62
2022-09-01T11:59:25.587Z,208.12
2022-09-01T12:00:25.587Z,196.88
2022-09-01T12:01:25.564Z,180.00
2022-09-01T12:02:25.738Z,168.75
2022-09-01T12:03:25.944Z,163.12
2022-09-01T12:04:25.531Z,157.50
2022-09-01T12:05:25.526Z,157.50
2022-09-01T12:06:25.507Z,151.88
2022-09-01T12:07:25.494Z,151.88
2022-09-01T12:08:25.503Z,151.88
2022-09-01T12:09:25.474Z,151.88
2022-09-01T12:10:25.473Z,157.50
2022-09-01T12:11:25.469Z,163.12
2022-09-01T12:12:25.441Z,168.75
2022-09-01T12:13:25.429Z,174.38
2022-09-01T12:14:25.424Z,174.38
2022-09-01T12:15:25.469Z,174.38
2022-09-01T12:16:25.483Z,180.00
2022-09-01T12:17:25.385Z,185.62
2022-09-01T12:18:25.376Z,191.25
2022-09-01T12:19:25.362Z,191.25
2022-09-01T12:20:28.863Z,191.25
2022-09-01T12:21:25.341Z,191.25
2022-09-01T12:22:25.333Z,191.25
2022-09-01T12:23:25.327Z,202.50
2022-09-01T12:24:25.314Z,225.00
2022-09-01T12:25:25.309Z,225.00
2022-09-01T12:26:25.287Z,230.62
2022-09-01T12:27:25.276Z,225.00
2022-09-01T12:28:25.268Z,213.75
2022-09-01T12:29:31.443Z,208.12
2022-09-01T12:30:26.254Z,202.50
2022-09-01T12:31:25.336Z,196.88
2022-09-01T12:32:25.222Z,191.25
2022-09-01T12:33:25.225Z,185.62
2022-09-01T12:34:25.203Z,185.62
2022-09-01T12:35:25.196Z,185.62
2022-09-01T12:36:25.177Z,174.38
2022-09-01T12:37:25.169Z,168.75
2022-09-01T12:38:25.177Z,163.12
2022-09-01T12:39:25.144Z,163.12
2022-09-01T12:40:25.203Z,157.50
2022-09-01T12:41:25.122Z,157.50
2022-09-01T12:42:25.113Z,157.50
2022-09-01T12:43:25.104Z,157.50
2022-09-01T12:44:25.090Z,157.50
2022-09-01T12:45:25.089Z,151.88
2022-09-01T12:46:25.068Z,151.88
2022-09-01T12:47:26.871Z,146.25
2022-09-01T12:48:25.046Z,146.25
2022-09-01T12:49:25.118Z,140.62
2022-09-01T12:50:25.032Z,140.62
2022-09-01T12:51:29.270Z,140.62
2022-09-01T12:52:26.356Z,135.00
2022-09-01T12:53:24.991Z,135.00
2022-09-01T12:54:24.984Z,135.00
2022-09-01T12:56:25.957Z,140.62
2022-09-01T12:57:24.947Z,140.62
2022-09-01T12:58:24.943Z,146.25
2022-09-01T12:59:35.766Z,157.50
2022-09-01T13:00:25.924Z,163.12
2022-09-01T13:01:25.040Z,168.75